Time;durP1;ratioP1;P1;durP2;ratioP2;P2;SDS_P1;SDS_P2;PMS_P1;PMS_P2;Temp;Humidity;BMP_temperature;BMP_pressure;BME280_temperature;BME280_humidity;BME280_pressure;Samples;Min_cycle;Max_cycle;Signal;HPM_P1;HPM_P2
2023/09/18 00:02:06;;;;;;;10.75;6.95;;;;;;;;;;5003141;28;21266;-59
2023/09/18 00:05:00;;;;;;;11.45;7.45;;;;;;;;;;5003898;28;20053;-59
2023/09/18 00:07:53;;;;;;;11.35;7.80;;;;;;;;;;4993487;28;20053;-60
2023/09/18 00:10:41;;;;;;;11.20;7.07;;;;;;;;;;4998927;28;20049;-63
2023/09/18 00:13:41;;;;;;;10.75;7.80;;;;;;;;;;4980450;28;20086;-63
2023/09/18 00:16:28;;;;;;;13.73;7.63;;;;;;;;;;4984734;28;20089;-63
2023/09/18 00:19:25;;;;;;;10.10;7.80;;;;;;;;;;4986405;28;20062;-63
2023/09/18 00:22:13;;;;;;;9.75;7.88;;;;;;;;;;4985046;28;20516;-63
2023/09/18 00:25:06;;;;;;;10.38;7.53;;;;;;;;;;4986066;28;20571;-56
2023/09/18 00:27:53;;;;;;;13.30;7.70;;;;;;;;;;4987421;28;20062;-65
2023/09/18 00:30:49;;;;;;;15.73;7.88;;;;;;;;;;4985667;28;20082;-64
2023/09/18 00:33:36;;;;;;;11.53;7.40;;;;;;;;;;4977459;28;20069;-64
2023/09/18 00:36:29;;;;;;;8.45;7.47;;;;;;;;;;4983757;28;20438;-64
2023/09/18 00:39:17;;;;;;;11.23;7.30;;;;;;;;;;4985017;28;20090;-64
2023/09/18 00:42:13;;;;;;;8.93;7.05;;;;;;;;;;4988777;28;20058;-60
2023/09/18 00:44:57;;;;;;;10.32;7.45;;;;;;;;;;4988403;28;20054;-59
2023/09/18 00:47:51;;;;;;;8.48;6.63;;;;;;;;;;4972369;28;20057;-51
2023/09/18 00:50:39;;;;;;;7.07;5.88;;;;;;;;;;4985154;28;20090;-45
2023/09/18 00:53:33;;;;;;;8.50;6.28;;;;;;;;;;4982420;28;20054;-49
2023/09/18 00:56:20;;;;;;;8.40;6.13;;;;;;;;;;4981971;28;20085;-49
2023/09/18 00:59:21;;;;;;;8.82;6.30;;;;;;;;;;4980721;28;20144;-48
2023/09/18 01:02:15;;;;;;;7.72;6.05;;;;;;;;;;4980912;28;20129;-49
2023/09/18 01:05:03;;;;;;;8.93;6.13;;;;;;;;;;4986012;28;20058;-63
2023/09/18 01:07:57;;;;;;;9.00;6.88;;;;;;;;;;4983545;28;20637;-63
2023/09/18 01:10:49;;;;;;;8.10;6.22;;;;;;;;;;4984412;28;20057;-63
2023/09/18 01:13:55;;;;;;;9.25;6.85;;;;;;;;;;5000782;28;20042;-63
2023/09/18 01:17:10;;;;;;;6.97;6.05;;;;;;;;;;5002515;28;20541;-63
2023/09/18 01:20:05;;;;;;;10.02;6.00;;;;;;;;;;5001045;28;20514;-58
2023/09/18 01:22:51;;;;;;;10.43;6.40;;;;;;;;;;5003429;28;20482;-50
2023/09/18 01:25:44;;;;;;;9.18;6.20;;;;;;;;;;5004209;28;20068;-53
2023/09/18 01:28:32;;;;;;;10.38;6.40;;;;;;;;;;5000191;28;20604;-49
2023/09/18 01:31:26;;;;;;;8.02;6.82;;;;;;;;;;5000698;28;20089;-53
2023/09/18 01:34:13;;;;;;;9.27;6.78;;;;;;;;;;5001818;28;20145;-52
2023/09/18 01:37:08;;;;;;;9.80;6.82;;;;;;;;;;4992174;28;20090;-49
2023/09/18 01:39:58;;;;;;;10.05;6.82;;;;;;;;;;5000077;28;20081;-48
2023/09/18 01:42:49;;;;;;;10.25;7.03;;;;;;;;;;4996008;28;20136;-50
2023/09/18 01:45:37;;;;;;;10.38;6.78;;;;;;;;;;4986111;28;20060;-51
2023/09/18 01:48:30;;;;;;;8.90;6.57;;;;;;;;;;4999097;28;20085;-63
2023/09/18 01:51:18;;;;;;;10.40;7.07;;;;;;;;;;5000809;28;20073;-50
2023/09/18 01:54:13;;;;;;;8.60;6.78;;;;;;;;;;5001886;28;20896;-48
2023/09/18 01:57:00;;;;;;;8.20;6.20;;;;;;;;;;5000427;28;20061;-53
2023/09/18 01:59:53;;;;;;;8.95;6.20;;;;;;;;;;4999141;28;20115;-47
2023/09/18 02:02:41;;;;;;;8.40;6.00;;;;;;;;;;4999493;28;20371;-46
2023/09/18 02:05:55;;;;;;;9.45;5.95;;;;;;;;;;4990729;28;20533;-48
2023/09/18 02:08:43;;;;;;;9.15;6.80;;;;;;;;;;4987880;28;20042;-48
2023/09/18 02:11:44;;;;;;;7.65;5.72;;;;;;;;;;5003204;28;20054;-48
2023/09/18 02:14:38;;;;;;;9.30;6.05;;;;;;;;;;5004797;28;20049;-47
2023/09/18 02:17:31;;;;;;;8.20;6.20;;;;;;;;;;5004892;28;20078;-62
2023/09/18 02:20:19;;;;;;;6.95;5.70;;;;;;;;;;5006646;28;20050;-59
2023/09/18 02:23:12;;;;;;;9.70;5.93;;;;;;;;;;5005829;28;20070;-59
2023/09/18 02:25:59;;;;;;;5.95;4.72;;;;;;;;;;5007103;28;20058;-59
2023/09/18 02:28:54;;;;;;;11.05;5.65;;;;;;;;;;5003963;28;20072;-59
2023/09/18 02:31:48;;;;;;;7.55;5.65;;;;;;;;;;5007046;28;20100;-59
2023/09/18 16:19:15;;;;;;;12.98;8.60;;;;;;;;;;4997639;28;20548;-62
2023/09/18 16:21:43;;;;;;;15.07;9.65;;;;;;;;;;4992920;28;20058;-63
2023/09/18 16:24:17;;;;;;;13.07;8.95;;;;;;;;;;4998791;28;20103;-48
2023/09/18 16:26:44;;;;;;;;;;;;;;;;;;4998895;28;20050;-60
2023/09/18 16:29:11;;;;;;;13.20;7.68;;;;;;;;;;4999399;28;19929;-60
2023/09/18 16:32:06;;;;;;;9.55;6.30;;;;;;;;;;4984881;28;20053;-62
2023/09/18 16:34:52;;;;;;;12.27;9.23;;;;;;;;;;4995453;28;20050;-60
2023/09/18 16:37:47;;;;;;;12.25;9.05;;;;;;;;;;4991941;28;20112;-60
2023/09/18 16:40:34;;;;;;;13.27;9.23;;;;;;;;;;4996995;28;20050;-60
2023/09/18 16:43:30;;;;;;;15.13;9.43;;;;;;;;;;4995306;28;20100;-58
2023/09/18 16:46:17;;;;;;;12.32;7.93;;;;;;;;;;4997982;28;20054;-50
2023/09/18 16:49:13;;;;;;;16.42;9.27;;;;;;;;;;4987611;28;20054;-48
2023/09/18 16:51:44;;;;;;;13.60;8.80;;;;;;;;;;4991604;28;20440;-48
2023/09/18 16:54:38;;;;;;;13.60;8.20;;;;;;;;;;4993940;28;20051;-49
2023/09/18 16:57:33;;;;;;;13.10;8.40;;;;;;;;;;4993852;28;20498;-48
2023/09/18 17:00:27;;;;;;;14.00;8.00;;;;;;;;;;4996311;28;20688;-50
2023/09/18 17:03:14;;;;;;;15.38;8.70;;;;;;;;;;4995502;28;20057;-62
2023/09/18 17:06:08;;;;;;;12.02;8.23;;;;;;;;;;4989816;28;20058;-61
2023/09/18 17:08:55;;;;;;;11.98;7.97;;;;;;;;;;4993573;28;20057;-63
2023/09/18 17:11:50;;;;;;;13.00;8.02;;;;;;;;;;4983695;28;20866;-61
2023/09/18 17:14:37;;;;;;;8.95;7.80;;;;;;;;;;4998950;28;20058;-62
2023/09/18 17:17:38;;;;;;;10.05;7.40;;;;;;;;;;4996559;28;20057;-59
2023/09/18 17:20:30;;;;;;;9.85;7.30;;;;;;;;;;5000871;28;20087;-49
2023/09/18 17:23:24;;;;;;;14.60;7.60;;;;;;;;;;4994701;28;20803;-60
2023/09/18 17:26:11;;;;;;;15.95;8.50;;;;;;;;;;4996661;28;20069;-60
2023/09/18 17:29:05;;;;;;;13.45;8.30;;;;;;;;;;4989350;28;20050;-60
2023/09/18 17:31:52;;;;;;;14.15;7.85;;;;;;;;;;4990615;28;20509;-62
2023/09/18 17:34:47;;;;;;;14.73;8.45;;;;;;;;;;4988727;28;20160;-60
2023/09/18 17:37:34;;;;;;;14.32;8.73;;;;;;;;;;4991557;28;20128;-50
2023/09/18 17:40:28;;;;;;;12.85;8.20;;;;;;;;;;4990232;28;20055;-61
2023/09/18 17:43:15;;;;;;;11.27;7.88;;;;;;;;;;4992916;28;20082;-61
2023/09/18 17:46:09;;;;;;;10.82;7.05;;;;;;;;;;4989814;28;20113;-60
2023/09/18 17:48:56;;;;;;;9.13;6.80;;;;;;;;;;4982434;28;20524;-61
2023/09/18 17:51:50;;;;;;;14.13;7.72;;;;;;;;;;4993469;28;20556;-61
2023/09/18 17:54:37;;;;;;;10.82;7.55;;;;;;;;;;4993868;28;20054;-48
2023/09/18 17:57:37;;;;;;;10.85;8.23;;;;;;;;;;4981924;28;20060;-47
2023/09/18 18:00:24;;;;;;;9.45;7.68;;;;;;;;;;4998643;28;20081;-48
2023/09/18 18:03:20;;;;;;;13.48;8.07;;;;;;;;;;4996172;28;20045;-50
2023/09/18 18:06:10;;;;;;;15.27;7.22;;;;;;;;;;4981006;28;20050;-50
2023/09/18 18:09:05;;;;;;;11.80;7.75;;;;;;;;;;4992924;28;21409;-50
2023/09/18 18:11:58;;;;;;;12.18;7.90;;;;;;;;;;5000533;28;20088;-50
2023/09/18 18:14:48;;;;;;;10.43;7.78;;;;;;;;;;5003015;28;20050;-58
2023/09/18 18:17:48;;;;;;;12.00;8.27;;;;;;;;;;5000796;28;20588;-59
2023/09/18 18:20:35;;;;;;;16.63;8.07;;;;;;;;;;4998704;28;20054;-58
2023/09/18 18:23:28;;;;;;;12.55;8.20;;;;;;;;;;4998536;28;20120;-59
2023/09/18 18:26:27;;;;;;;10.52;8.32;;;;;;;;;;4998410;28;20046;-59
2023/09/18 18:29:10;;;;;;;11.57;8.30;;;;;;;;;;4994534;28;20054;-59
2023/09/18 18:32:04;;;;;;;13.43;8.30;;;;;;;;;;5000431;28;20069;-50
2023/09/18 18:34:51;;;;;;;11.38;8.90;;;;;;;;;;4997892;28;21536;-48
2023/09/18 18:37:46;;;;;;;12.02;9.18;;;;;;;;;;4997069;28;20053;-51
2023/09/18 18:40:32;;;;;;;11.98;9.02;;;;;;;;;;4994991;28;20057;-49
2023/09/18 18:43:26;;;;;;;15.55;9.73;;;;;;;;;;5000756;28;20612;-48
2023/09/18 18:46:13;;;;;;;15.23;9.77;;;;;;;;;;4993431;28;20520;-45
2023/09/18 18:49:07;;;;;;;13.43;8.98;;;;;;;;;;4988022;28;20897;-61
2023/09/18 18:51:54;;;;;;;14.00;9.98;;;;;;;;;;4985679;28;20155;-58
2023/09/18 18:54:48;;;;;;;16.17;10.45;;;;;;;;;;5000798;28;20117;-60
2023/09/18 18:57:36;;;;;;;14.43;9.95;;;;;;;;;;4998438;28;20472;-60
2023/09/18 19:00:30;;;;;;;17.60;10.77;;;;;;;;;;5001914;28;20124;-64
2023/09/18 19:03:24;;;;;;;21.02;10.77;;;;;;;;;;4998639;28;20062;-62
2023/09/18 19:06:11;;;;;;;17.77;10.40;;;;;;;;;;5004225;28;20541;-61
2023/09/18 19:09:05;;;;;;;16.88;10.90;;;;;;;;;;5004757;28;20081;-49
2023/09/18 19:11:52;;;;;;;16.08;11.77;;;;;;;;;;5001664;28;20160;-65
2023/09/18 19:14:46;;;;;;;19.85;11.55;;;;;;;;;;5006283;28;20053;-66
2023/09/18 19:17:41;;;;;;;16.20;11.97;;;;;;;;;;4994736;28;20145;-66
2023/09/18 19:20:35;;;;;;;15.70;11.75;;;;;;;;;;4965430;28;20059;-65
2023/09/18 19:23:22;;;;;;;16.98;13.07;;;;;;;;;;4983083;28;20109;-66
2023/09/18 19:26:18;;;;;;;20.88;14.18;;;;;;;;;;4982676;28;20062;-53
2023/09/18 19:29:03;;;;;;;18.35;12.07;;;;;;;;;;4980916;28;20062;-57
2023/09/18 19:31:57;;;;;;;19.33;13.23;;;;;;;;;;4981259;28;20069;-58
2023/09/18 19:34:44;;;;;;;17.35;13.13;;;;;;;;;;4968095;28;20714;-58
2023/09/18 19:37:38;;;;;;;21.25;14.80;;;;;;;;;;4986001;28;20117;-58
2023/09/18 19:40:28;;;;;;;41.00;20.23;;;;;;;;;;4982804;28;20082;-58
2023/09/18 19:43:21;;;;;;;14.00;12.18;;;;;;;;;;4985365;28;20054;-62
2023/09/18 19:46:07;;;;;;;16.98;11.25;;;;;;;;;;4980505;28;20077;-60
2023/09/18 19:49:01;;;;;;;14.60;12.00;;;;;;;;;;4978928;28;20065;-50
2023/09/18 19:51:48;;;;;;;13.45;10.07;;;;;;;;;;4979146;28;20096;-46
2023/09/18 19:54:43;;;;;;;16.27;11.57;;;;;;;;;;4983005;28;20050;-48
2023/09/18 19:57:30;;;;;;;19.02;14.02;;;;;;;;;;4967932;28;20046;-52
2023/09/18 20:00:24;;;;;;;20.30;14.85;;;;;;;;;;4984494;28;20054;-50
2023/09/18 20:03:11;;;;;;;20.83;13.93;;;;;;;;;;4983547;28;20054;-50
2023/09/18 20:06:08;;;;;;;13.13;11.52;;;;;;;;;;4986714;28;20105;-66
2023/09/18 20:08:54;;;;;;;12.25;10.02;;;;;;;;;;4987851;28;20144;-67
2023/09/18 20:11:46;;;;;;;17.70;12.48;;;;;;;;;;4980600;28;20684;-67
2023/09/18 20:14:41;;;;;;;16.98;10.70;;;;;;;;;;4984006;28;20148;-66
2023/09/18 20:17:22;;;;;;;17.55;11.85;;;;;;;;;;4987391;28;20506;-67
2023/09/18 20:20:16;;;;;;;15.57;11.65;;;;;;;;;;4982321;28;20057;-66
2023/09/18 20:23:10;;;;;;;13.95;10.63;;;;;;;;;;4986258;28;20046;-53
2023/09/18 20:26:06;;;;;;;16.88;13.75;;;;;;;;;;4979530;28;20054;-67
2023/09/18 20:28:52;;;;;;;19.92;13.77;;;;;;;;;;4979170;28;20061;-67
2023/09/18 20:31:46;;;;;;;14.43;12.25;;;;;;;;;;4982210;28;20057;-67
2023/09/18 20:34:34;;;;;;;16.33;13.85;;;;;;;;;;4976007;28;20569;-66
2023/09/18 20:37:27;;;;;;;21.35;14.85;;;;;;;;;;4978922;28;20114;-67
2023/09/18 20:40:15;;;;;;;21.58;13.27;;;;;;;;;;4977872;28;20058;-60
2023/09/18 20:43:09;;;;;;;24.25;15.07;;;;;;;;;;4979275;28;20073;-59
2023/09/18 20:45:56;;;;;;;21.83;14.18;;;;;;;;;;4981473;28;20050;-59
2023/09/18 20:48:50;;;;;;;22.58;16.00;;;;;;;;;;4978276;28;20821;-59
2023/09/18 20:51:45;;;;;;;22.60;15.60;;;;;;;;;;4977338;28;20085;-59
2023/09/18 20:54:40;;;;;;;25.13;15.82;;;;;;;;;;4978972;28;20585;-59
2023/09/18 20:57:26;;;;;;;32.15;19.48;;;;;;;;;;4977290;28;21005;-59
2023/09/18 21:00:19;;;;;;;33.08;20.13;;;;;;;;;;4981864;28;20065;-61
2023/09/18 21:03:07;;;;;;;29.30;17.48;;;;;;;;;;4965668;28;20148;-55
2023/09/18 21:06:01;;;;;;;23.95;16.98;;;;;;;;;;4974566;28;20050;-52
2023/09/18 21:08:50;;;;;;;24.23;17.48;;;;;;;;;;4981523;28;20198;-51
2023/09/18 21:11:44;;;;;;;25.30;16.67;;;;;;;;;;4979231;28;20062;-52
2023/09/18 21:14:37;;;;;;;25.63;17.40;;;;;;;;;;4974192;28;20929;-52
2023/09/18 21:17:37;;;;;;;26.88;17.00;;;;;;;;;;4982730;28;20062;-61
2023/09/18 21:20:32;;;;;;;36.88;18.35;;;;;;;;;;4981609;28;20073;-53
2023/09/18 21:23:26;;;;;;;31.65;19.58;;;;;;;;;;4974356;28;20077;-48
2023/09/18 21:26:19;;;;;;;30.15;18.98;;;;;;;;;;4978229;28;20062;-54
2023/09/18 21:29:13;;;;;;;30.38;19.98;;;;;;;;;;4979642;28;20065;-48
2023/09/18 21:32:00;;;;;;;28.70;19.25;;;;;;;;;;4969658;28;20059;-52
2023/09/18 21:35:00;;;;;;;36.13;21.17;;;;;;;;;;4945488;28;20061;-66
2023/09/18 21:37:49;;;;;;;29.42;19.85;;;;;;;;;;4980407;28;20590;-66
2023/09/18 21:40:41;;;;;;;35.90;19.48;;;;;;;;;;4981383;28;20117;-60
2023/09/18 21:43:29;;;;;;;32.35;20.33;;;;;;;;;;4983136;28;20061;-60
2023/09/18 21:46:23;;;;;;;32.15;19.67;;;;;;;;;;4979666;28;20097;-61
2023/09/18 21:49:11;;;;;;;34.92;20.83;;;;;;;;;;4981935;28;20058;-61
2023/09/18 21:52:04;;;;;;;43.97;21.95;;;;;;;;;;4983614;28;20050;-60
2023/09/18 21:54:52;;;;;;;38.20;21.25;;;;;;;;;;4981172;28;20700;-61
2023/09/18 21:57:45;;;;;;;34.40;21.98;;;;;;;;;;4985542;28;20075;-58
2023/09/18 22:00:40;;;;;;;37.13;22.60;;;;;;;;;;4974958;28;20135;-58
2023/09/18 22:03:26;;;;;;;51.72;26.00;;;;;;;;;;4981797;28;20050;-59
2023/09/18 22:06:20;;;;;;;39.40;24.35;;;;;;;;;;4980166;28;20058;-59
2023/09/18 22:09:07;;;;;;;47.58;27.92;;;;;;;;;;4986206;28;20490;-58
2023/09/18 22:12:04;;;;;;;36.25;21.92;;;;;;;;;;4984405;28;20058;-65
2023/09/18 22:14:50;;;;;;;49.88;28.73;;;;;;;;;;4982505;28;20074;-60
2023/09/18 22:17:49;;;;;;;57.60;29.73;;;;;;;;;;4989637;28;20046;-60
2023/09/18 22:20:50;;;;;;;51.30;28.75;;;;;;;;;;5001241;28;20050;-60
2023/09/18 22:23:43;;;;;;;46.90;27.08;;;;;;;;;;4985437;28;20069;-61
2023/09/18 22:26:39;;;;;;;55.15;28.58;;;;;;;;;;5004235;28;20060;-60
2023/09/18 22:29:32;;;;;;;47.00;27.33;;;;;;;;;;5005670;28;20062;-61
2023/09/18 22:32:25;;;;;;;49.95;31.05;;;;;;;;;;5006797;28;20559;-63
2023/09/18 22:35:21;;;;;;;58.08;31.52;;;;;;;;;;5005819;28;20054;-62
2023/09/18 22:38:09;;;;;;;63.33;33.70;;;;;;;;;;5004472;28;20053;-62
2023/09/18 22:41:02;;;;;;;54.17;29.95;;;;;;;;;;5001708;28;20050;-65
2023/09/18 22:44:07;;;;;;;56.17;31.85;;;;;;;;;;5003404;28;20046;-65
2023/09/18 22:47:19;;;;;;;78.50;35.63;;;;;;;;;;5005407;28;20068;-65
2023/09/18 22:50:25;;;;;;;58.17;32.90;;;;;;;;;;4994835;28;20670;-66
2023/09/18 22:53:22;;;;;;;56.30;34.85;;;;;;;;;;5005366;28;20053;-65
2023/09/18 22:56:09;;;;;;;49.55;32.22;;;;;;;;;;5005736;28;20057;-65
2023/09/18 22:59:04;;;;;;;75.40;37.47;;;;;;;;;;5005561;28;20081;-48
2023/09/18 23:01:52;;;;;;;72.68;38.03;;;;;;;;;;5004598;28;20068;-48
2023/09/18 23:04:45;;;;;;;80.07;39.10;;;;;;;;;;5006366;28;20491;-54
2023/09/18 23:07:33;;;;;;;99.30;42.78;;;;;;;;;;5002964;28;20064;-52
2023/09/18 23:10:27;;;;;;;81.47;42.92;;;;;;;;;;5006086;28;20056;-49
2023/09/18 23:13:14;;;;;;;78.18;39.53;;;;;;;;;;5004382;28;20045;-49
2023/09/18 23:16:08;;;;;;;81.25;42.70;;;;;;;;;;4998937;28;20069;-50
2023/09/18 23:18:39;;;;;;;;;;;;;;;;;;5001314;28;20061;-60
2023/09/18 23:21:35;;;;;;;66.28;35.90;;;;;;;;;;5000443;28;19925;-59
2023/09/18 23:24:22;;;;;;;62.15;34.67;;;;;;;;;;4999595;28;20465;-59
2023/09/18 23:27:17;;;;;;;84.40;40.95;;;;;;;;;;4993958;28;20121;-61
2023/09/18 23:30:12;;;;;;;63.40;34.72;;;;;;;;;;5002740;28;20053;-61
2023/09/18 23:33:05;;;;;;;79.10;39.90;;;;;;;;;;5006944;28;20053;-60
2023/09/18 23:35:53;;;;;;;79.65;42.58;;;;;;;;;;4998313;28;20050;-60
2023/09/18 23:38:47;;;;;;;81.32;43.58;;;;;;;;;;4994458;28;20054;-60
2023/09/18 23:41:32;;;;;;;83.43;44.45;;;;;;;;;;4987586;28;20502;-60
2023/09/18 23:44:26;;;;;;;63.13;36.60;;;;;;;;;;4983854;28;20992;-61
2023/09/18 23:47:13;;;;;;;66.35;34.30;;;;;;;;;;4989466;28;20128;-60
2023/09/18 23:50:07;;;;;;;63.33;35.65;;;;;;;;;;4987232;28;20112;-50
2023/09/18 23:52:56;;;;;;;61.25;33.97;;;;;;;;;;4984753;28;20115;-53
2023/09/18 23:55:49;;;;;;;65.68;34.72;;;;;;;;;;4983951;28;20140;-48
2023/09/18 23:58:43;;;;;;;53.10;31.50;;;;;;;;;;4965801;28;20831;-51
